Time;durP1;ratioP1;P1;durP2;ratioP2;P2;SDS_P1;SDS_P2;PMS_P1;PMS_P2;Temp;Humidity;BMP_temperature;BMP_pressure;BME280_temperature;BME280_humidity;BME280_pressure;Samples;Min_cycle;Max_cycle;Signal;HPM_P1;HPM_P2
2023/02/09 00:01:22;;;;;;;29.50;17.25;;;;;;;-6.36;49.02;95791.97;4984464;28;20022;-78
2023/02/09 00:03:48;;;;;;;32.47;17.75;;;;;;;-6.24;48.95;95798.44;4986396;28;20121;-78
2023/02/09 00:06:16;;;;;;;37.97;19.45;;;;;;;-6.29;48.50;95790.34;4987914;28;20038;-77
2023/02/09 00:08:42;;;;;;;34.47;19.02;;;;;;;-6.16;48.80;95800.22;4986709;28;20061;-78
2023/02/09 00:14:12;;;;;;;34.15;18.90;;;;;;;-6.25;48.70;95802.00;4987491;28;20069;-79
2023/02/09 00:16:38;;;;;;;27.13;16.17;;;;;;;-6.38;48.71;95765.41;4984612;28;20121;-78
2023/02/09 00:19:03;;;;;;;27.45;16.15;;;;;;;-6.37;48.93;95782.56;4987570;28;20030;-79
2023/02/09 00:21:29;;;;;;;22.05;12.93;;;;;;;-6.44;48.90;95760.06;4986267;28;20121;-78
2023/02/09 00:23:54;;;;;;;27.88;15.88;;;;;;;-6.61;48.48;95723.00;4988356;28;20042;-79
2023/02/09 00:26:19;;;;;;;24.13;16.05;;;;;;;-6.18;48.64;95790.03;4987827;28;20467;-78
2023/02/09 00:28:45;;;;;;;27.15;16.38;;;;;;;-6.18;48.57;95784.84;4991777;28;20124;-79
2023/02/09 00:31:12;;;;;;;34.03;18.77;;;;;;;-6.51;48.80;95740.97;4990021;28;20092;-78
2023/02/09 00:33:37;;;;;;;30.65;16.55;;;;;;;-6.26;48.75;95784.84;4989891;28;20560;-78
2023/02/09 00:36:09;;;;;;;27.92;16.15;;;;;;;-6.29;48.44;95769.63;4990004;28;20057;-77
2023/02/09 00:38:35;;;;;;;26.60;15.63;;;;;;;-6.14;48.15;95776.75;4988778;28;20041;-78
2023/02/09 00:41:01;;;;;;;21.92;12.10;;;;;;;-6.30;47.64;95747.28;4992384;28;20050;-78
2023/02/09 00:43:26;;;;;;;19.42;11.32;;;;;;;-6.03;47.50;95776.41;4990532;28;20429;-79
2023/02/09 00:45:52;;;;;;;15.93;10.70;;;;;;;-6.10;47.12;95767.69;4991453;28;20532;-78
2023/02/09 00:48:17;;;;;;;15.50;10.23;;;;;;;-6.30;47.21;95742.09;4989765;28;20030;-78
2023/02/09 00:50:43;;;;;;;12.10;7.88;;;;;;;-6.18;47.04;95751.19;4990921;28;20050;-79
2023/02/09 00:53:08;;;;;;;12.00;8.43;;;;;;;-6.24;47.15;95762.16;4989135;28;20128;-78
2023/02/09 00:55:33;;;;;;;11.07;6.90;;;;;;;-6.31;47.35;95745.69;4992121;28;20050;-79
2023/02/09 00:57:59;;;;;;;12.40;7.63;;;;;;;-6.22;46.97;95755.06;4990644;28;20021;-78
2023/02/09 01:00:25;;;;;;;9.25;7.18;;;;;;;-6.39;47.38;95726.72;4991894;28;20128;-79
2023/02/09 01:02:50;;;;;;;11.15;6.97;;;;;;;-6.31;47.78;95740.50;4989749;28;20042;-79
2023/02/09 01:05:16;;;;;;;10.68;7.30;;;;;;;-6.26;47.41;95722.69;4992724;28;20124;-79
2023/02/09 01:07:41;;;;;;;9.63;5.88;;;;;;;-6.38;47.77;95723.97;4988694;28;20046;-79
2023/02/09 01:10:07;;;;;;;12.32;7.00;;;;;;;-6.20;47.29;95722.03;4989568;28;20696;-78
2023/02/09 01:12:32;;;;;;;9.65;6.13;;;;;;;-5.91;46.79;95741.44;4991078;28;20033;-79
2023/02/09 01:15:00;;;;;;;9.85;6.35;;;;;;;-5.96;46.89;95744.53;4990093;28;20382;-78
2023/02/09 01:17:26;;;;;;;14.57;8.65;;;;;;;-5.95;46.79;95745.31;4991887;28;20060;-79
2023/02/09 01:19:52;;;;;;;18.30;10.55;;;;;;;-6.02;47.06;95734.00;4988628;28;20489;-79
2023/02/09 01:22:18;;;;;;;16.75;10.30;;;;;;;-5.93;46.60;95728.66;4990146;28;20053;-79
2023/02/09 01:24:44;;;;;;;16.88;10.70;;;;;;;-5.88;46.54;95731.56;4989959;28;20112;-78
2023/02/09 01:27:09;;;;;;;16.67;10.40;;;;;;;-6.11;46.82;95720.25;4989650;28;20042;-78
2023/02/09 01:29:35;;;;;;;23.48;13.45;;;;;;;-6.01;46.70;95705.34;4988951;28;20057;-78
2023/02/09 01:32:00;;;;;;;19.05;12.00;;;;;;;-6.29;47.11;95697.09;4989048;28;20035;-79
2023/02/09 01:34:25;;;;;;;19.15;13.25;;;;;;;-6.14;46.81;95730.13;4989515;28;20435;-78
2023/02/09 01:36:51;;;;;;;21.45;12.38;;;;;;;-6.15;47.27;95733.69;4992668;28;20163;-79
2023/02/09 01:39:16;;;;;;;20.23;12.55;;;;;;;-6.22;47.46;95718.81;4985798;28;20332;-78
2023/02/09 01:41:42;;;;;;;18.17;12.52;;;;;;;-6.19;47.54;95728.81;4987635;28;20783;-79
2023/02/09 01:44:11;;;;;;;17.30;10.38;;;;;;;-6.36;47.60;95737.59;4991852;28;20049;-80
2023/02/09 01:46:38;;;;;;;14.85;9.85;;;;;;;-6.49;47.21;95713.16;4988461;28;20045;-78
2023/02/09 01:49:14;;;;;;;15.95;8.77;;;;;;;-6.43;47.29;95734.00;4991367;28;20746;-79
2023/02/09 01:51:54;;;;;;;10.48;8.23;;;;;;;-6.48;47.50;95728.50;4989612;28;20521;-78
2023/02/09 01:54:40;;;;;;;10.70;6.88;;;;;;;-6.58;47.37;95706.34;4988315;28;20085;-78
2023/02/09 01:57:28;;;;;;;12.65;7.82;;;;;;;-6.54;47.74;95718.00;4990072;28;20488;-79
2023/02/09 02:00:00;;;;;;;11.65;7.72;;;;;;;-6.68;47.87;95717.66;4985846;28;20084;-77
2023/02/09 02:02:25;;;;;;;10.52;7.03;;;;;;;-6.62;47.72;95716.19;4989722;28;20066;-78
2023/02/09 02:04:51;;;;;;;10.88;7.68;;;;;;;-6.73;47.80;95701.78;4989053;28;20132;-79
2023/02/09 02:07:34;;;;;;;17.52;10.10;;;;;;;-6.61;47.95;95704.88;4988772;28;20117;-79
2023/02/09 02:10:01;;;;;;;17.42;10.27;;;;;;;-6.57;48.19;95713.94;4988492;28;20049;-78
2023/02/09 02:12:28;;;;;;;15.88;10.32;;;;;;;-6.71;47.87;95676.56;4990041;28;20058;-78
2023/02/09 02:14:53;;;;;;;18.30;10.30;;;;;;;-6.41;47.71;95713.97;4987778;28;20053;-79
2023/02/09 02:17:50;;;;;;;18.90;10.15;;;;;;;-6.46;47.94;95707.66;4986716;28;20034;-79
2023/02/09 02:20:52;;;;;;;17.20;10.02;;;;;;;-6.46;48.05;95710.22;4989691;28;20085;-77
2023/02/09 02:23:27;;;;;;;16.60;10.25;;;;;;;-6.57;48.00;95703.59;4988714;28;20046;-79
2023/02/09 02:26:09;;;;;;;13.48;9.00;;;;;;;-6.66;48.10;95681.25;4989439;28;20048;-79
2023/02/09 02:28:56;;;;;;;17.02;10.68;;;;;;;-6.51;47.81;95708.13;4985767;28;20041;-79
2023/02/09 02:31:36;;;;;;;20.08;12.05;;;;;;;-6.54;47.79;95710.25;4995101;28;20774;-78
2023/02/09 02:34:06;;;;;;;20.55;12.60;;;;;;;-6.50;48.00;95714.94;4990536;28;20400;-78
2023/02/09 02:36:54;;;;;;;17.50;11.55;;;;;;;-6.47;48.15;95709.41;4983193;28;20467;-78
2023/02/09 02:39:58;;;;;;;23.15;13.50;;;;;;;-6.53;47.99;95699.69;4987967;28;20553;-78
2023/02/09 02:42:50;;;;;;;22.50;13.02;;;;;;;-6.47;48.15;95693.88;4981717;28;20042;-80
2023/02/09 02:45:22;;;;;;;17.42;11.68;;;;;;;-6.47;48.04;95701.66;4999001;28;20034;-78
2023/02/09 02:47:57;;;;;;;18.58;11.88;;;;;;;-6.86;48.08;95646.31;4989242;28;20046;-79
2023/02/09 02:50:28;;;;;;;17.80;11.65;;;;;;;-6.60;48.00;95666.88;4989222;28;20034;-79
2023/02/09 02:52:56;;;;;;;19.63;11.07;;;;;;;-6.58;47.67;95691.63;4987358;28;20165;-79
2023/02/09 02:55:27;;;;;;;15.43;10.63;;;;;;;-6.70;47.21;95677.38;4990317;28;20520;-79
2023/02/09 02:57:59;;;;;;;16.58;10.02;;;;;;;-6.77;47.27;95660.88;4988925;28;20030;-78
2023/02/09 03:00:33;;;;;;;11.48;7.22;;;;;;;-7.06;47.83;95636.28;4990861;28;20037;-77
2023/02/09 03:03:05;;;;;;;15.07;8.93;;;;;;;-6.95;48.08;95662.81;4986777;28;20085;-78
2023/02/09 03:05:31;;;;;;;12.20;7.60;;;;;;;-7.00;48.12;95658.13;4989594;28;20034;-78
2023/02/09 03:07:56;;;;;;;11.15;7.57;;;;;;;-6.87;48.14;95666.19;4987636;28;20050;-78
2023/02/09 03:10:35;;;;;;;11.23;7.15;;;;;;;-6.84;47.98;95665.09;4986964;28;20100;-79
2023/02/09 03:13:36;;;;;;;12.73;7.38;;;;;;;-7.18;47.64;95618.66;4988587;28;20041;-78
2023/02/09 03:16:07;;;;;;;12.50;7.18;;;;;;;-6.81;47.68;95688.84;4985543;28;20059;-78
2023/02/09 03:18:51;;;;;;;11.60;7.43;;;;;;;-6.78;47.17;95685.94;4994548;28;20057;-77
2023/02/09 03:21:28;;;;;;;12.85;8.23;;;;;;;-6.84;47.38;95680.63;4988218;28;20157;-78
2023/02/09 03:24:06;;;;;;;14.68;8.00;;;;;;;-6.83;47.70;95672.66;4990684;28;20509;-78
2023/02/09 03:26:44;;;;;;;15.30;9.43;;;;;;;-7.01;48.16;95650.50;4995450;28;20046;-77
2023/02/09 03:29:11;;;;;;;15.48;8.68;;;;;;;-7.51;48.14;95581.59;4989477;28;20084;-78
2023/02/09 03:31:38;;;;;;;16.30;8.85;;;;;;;-7.25;48.43;95626.22;4986485;28;20552;-78
2023/02/09 03:34:04;;;;;;;14.68;8.90;;;;;;;-7.07;47.87;95645.00;4987099;28;20041;-79
2023/02/09 03:36:33;;;;;;;16.77;10.40;;;;;;;-6.95;47.53;95667.97;4987351;28;20812;-78
2023/02/09 03:38:59;;;;;;;14.18;8.82;;;;;;;-6.97;47.55;95662.16;4990506;28;20125;-79
2023/02/09 03:41:24;;;;;;;15.68;8.95;;;;;;;-7.18;47.87;95658.25;4986135;28;20563;-79
2023/02/09 03:46:34;;;;;;;15.95;8.48;;;;;;;-7.00;48.37;95654.72;4989603;28;20498;-77
2023/02/09 03:48:59;;;;;;;15.05;8.18;;;;;;;-7.34;48.74;95653.03;4989089;28;20026;-77
2023/02/09 03:51:24;;;;;;;14.48;7.88;;;;;;;-7.32;49.13;95645.91;4988574;28;20033;-79
2023/02/09 03:53:50;;;;;;;13.63;8.52;;;;;;;-7.24;49.12;95661.47;4986207;28;20040;-78
2023/02/09 03:56:15;;;;;;;14.63;8.68;;;;;;;-7.27;48.86;95642.84;4983788;28;20045;-77
2023/02/09 03:58:41;;;;;;;15.40;8.13;;;;;;;-7.16;48.37;95668.44;4987439;28;20029;-78
2023/02/09 04:01:08;;;;;;;14.57;9.70;;;;;;;-7.38;48.35;95649.16;4987010;28;20621;-79
2023/02/09 04:03:34;;;;;;;15.05;9.95;;;;;;;-7.21;47.97;95673.25;4987682;28;20570;-78
2023/02/09 04:06:00;;;;;;;12.98;8.60;;;;;;;-7.22;48.43;95680.22;4985081;28;20038;-78
2023/02/09 04:08:28;;;;;;;13.68;9.30;;;;;;;-7.36;48.40;95656.75;4988404;28;20042;-78
2023/02/09 04:10:56;;;;;;;12.77;8.00;;;;;;;-7.19;48.24;95677.31;4986082;28;20112;-80
2023/02/09 04:13:22;;;;;;;11.95;7.43;;;;;;;-7.17;48.29;95669.38;4985430;28;20034;-79
2023/02/09 04:15:48;;;;;;;11.45;7.15;;;;;;;-7.40;48.59;95648.50;4987860;28;20681;-77
2023/02/09 04:18:13;;;;;;;11.10;6.50;;;;;;;-7.46;48.87;95651.69;4984569;28;20142;-78
2023/02/09 04:20:39;;;;;;;11.10;6.72;;;;;;;-7.50;48.71;95647.81;4988956;28;20050;-79
2023/02/09 04:23:04;;;;;;;11.32;6.82;;;;;;;-7.33;48.65;95667.59;4984544;28;20030;-78
2023/02/09 04:25:29;;;;;;;9.65;6.78;;;;;;;-7.51;48.91;95647.00;4987037;28;20539;-77
2023/02/09 04:27:55;;;;;;;9.68;5.60;;;;;;;-7.34;48.62;95668.56;4982538;28;20031;-78
2023/02/09 04:30:20;;;;;;;10.82;5.97;;;;;;;-7.25;48.57;95657.25;4986169;28;20456;-78
2023/02/09 04:32:45;;;;;;;11.20;6.63;;;;;;;-7.28;48.35;95662.75;4989092;28;20038;-78
2023/02/09 04:35:11;;;;;;;11.13;6.38;;;;;;;-7.33;48.64;95649.50;4986089;28;20041;-79
2023/02/09 04:37:36;;;;;;;10.27;6.32;;;;;;;-7.48;48.22;95625.22;4974129;28;20046;-79
2023/02/09 04:40:02;;;;;;;9.38;6.03;;;;;;;-7.27;48.44;95672.09;4990022;28;20458;-79
2023/02/09 04:42:27;;;;;;;12.38;7.28;;;;;;;-7.44;48.21;95651.56;4987507;28;20049;-77
2023/02/09 04:44:53;;;;;;;10.30;6.85;;;;;;;-7.48;48.59;95660.59;4985112;28;20104;-79
2023/02/09 04:47:18;;;;;;;10.30;6.93;;;;;;;-7.44;48.55;95657.53;4985745;28;20050;-78
2023/02/09 04:49:43;;;;;;;13.68;7.88;;;;;;;-7.45;48.95;95676.59;4985768;28;20556;-77
2023/02/09 04:52:09;;;;;;;13.55;8.73;;;;;;;-7.50;48.93;95668.50;4986860;28;20056;-78
2023/02/09 04:54:34;;;;;;;15.60;9.30;;;;;;;-7.63;49.67;95670.72;4986535;28;20045;-79
2023/02/09 04:59:44;;;;;;;16.58;8.68;;;;;;;-7.71;49.59;95657.75;4989088;28;20065;-78
2023/02/09 05:02:09;;;;;;;12.27;7.88;;;;;;;-7.44;49.28;95673.03;4983890;28;20038;-78
2023/02/09 05:04:35;;;;;;;14.05;7.22;;;;;;;-7.44;48.96;95673.03;4988226;28;20038;-79
2023/02/09 05:07:01;;;;;;;11.27;7.03;;;;;;;-7.38;48.86;95672.44;4982113;28;20061;-78
2023/02/09 05:09:27;;;;;;;11.30;7.68;;;;;;;-7.59;49.20;95678.00;4995640;28;20043;-78
2023/02/09 05:11:52;;;;;;;13.45;7.50;;;;;;;-7.78;49.04;95643.84;4987101;28;20034;-77
2023/02/09 05:14:18;;;;;;;11.23;6.72;;;;;;;-7.82;49.47;95663.22;4992821;28;20038;-79
2023/02/09 05:16:43;;;;;;;13.02;7.35;;;;;;;-7.85;49.20;95632.50;4988768;28;20050;-78
2023/02/09 05:19:08;;;;;;;10.48;7.03;;;;;;;-7.68;49.14;95658.28;4993034;28;20510;-79
2023/02/09 05:21:34;;;;;;;13.07;6.82;;;;;;;-7.69;49.18;95663.59;4992164;28;20489;-79
2023/02/09 05:23:59;;;;;;;10.40;6.90;;;;;;;-7.56;49.18;95674.28;4988865;28;20167;-80
2023/02/09 05:26:25;;;;;;;13.05;8.52;;;;;;;-7.67;49.42;95662.47;4989610;28;20529;-77
2023/02/09 05:28:50;;;;;;;17.92;10.60;;;;;;;-7.70;49.61;95652.44;4990675;28;20046;-78
2023/02/09 05:31:17;;;;;;;65.57;32.97;;;;;;;-7.68;49.59;95665.22;4995471;28;20041;-78
2023/02/09 05:33:42;;;;;;;64.15;34.65;;;;;;;-7.53;49.15;95685.13;4989296;28;20572;-78
2023/02/09 05:36:08;;;;;;;35.80;22.02;;;;;;;-7.50;49.01;95663.31;4986618;28;20198;-78
2023/02/09 05:38:37;;;;;;;22.60;15.60;;;;;;;-7.50;48.81;95660.75;4983548;28;20034;-79
2023/02/09 05:41:07;;;;;;;18.52;10.82;;;;;;;-7.62;48.88;95654.25;4988119;28;20988;-79
2023/02/09 05:43:32;;;;;;;13.77;9.73;;;;;;;-7.53;48.96;95674.81;4989331;28;20110;-78
2023/02/09 05:45:58;;;;;;;10.10;7.57;;;;;;;-7.36;48.66;95698.91;4991142;28;20050;-79
2023/02/09 05:48:24;;;;;;;11.32;7.03;;;;;;;-7.50;49.00;95695.16;4989051;28;20528;-78
2023/02/09 05:50:49;;;;;;;10.48;6.53;;;;;;;-7.50;48.83;95668.50;4986060;28;20049;-78
2023/02/09 05:53:15;;;;;;;9.43;7.45;;;;;;;-7.32;48.50;95689.09;4997828;28;20586;-77
2023/02/09 05:55:41;;;;;;;8.70;6.30;;;;;;;-7.46;49.17;95693.06;4990375;28;20451;-78
2023/02/09 05:58:06;;;;;;;14.18;7.35;;;;;;;-7.78;48.98;95643.84;4987685;28;20058;-78
2023/02/09 06:00:32;;;;;;;13.65;7.35;;;;;;;-7.66;49.27;95655.50;4988320;28;20030;-78
2023/02/09 06:02:57;;;;;;;10.82;8.48;;;;;;;-7.29;49.00;95701.69;4989737;28;20600;-78
2023/02/09 06:05:23;;;;;;;15.80;9.25;;;;;;;-7.25;48.63;95696.03;4988938;28;20034;-79
2023/02/09 06:07:49;;;;;;;14.63;8.30;;;;;;;-7.29;49.07;95696.53;4998219;28;20049;-79
2023/02/09 06:10:16;;;;;;;12.05;8.00;;;;;;;-7.23;48.87;95688.94;4989964;28;20419;-79
2023/02/09 06:12:41;;;;;;;11.02;7.63;;;;;;;-7.42;49.45;95663.34;4988696;28;20503;-78
2023/02/09 06:15:07;;;;;;;12.23;7.82;;;;;;;-7.24;48.89;95674.41;4988912;28;20038;-79
2023/02/09 06:17:32;;;;;;;10.90;8.95;;;;;;;-7.33;49.55;95683.09;4990023;28;20583;-78
2023/02/09 06:19:58;;;;;;;17.20;10.07;;;;;;;-7.28;49.58;95677.47;4990125;28;20041;-78
2023/02/09 06:22:23;;;;;;;17.00;10.18;;;;;;;-7.33;49.30;95648.69;4986519;28;20022;-78
2023/02/09 06:24:49;;;;;;;19.10;11.40;;;;;;;-7.11;49.15;95676.50;4987577;28;20050;-78
2023/02/09 06:27:14;;;;;;;27.38;16.27;;;;;;;-7.09;49.41;95670.22;4989460;28;20544;-79
2023/02/09 06:29:39;;;;;;;29.85;17.25;;;;;;;-7.10;49.43;95676.38;4989019;28;20133;-78
2023/02/09 06:32:05;;;;;;;26.88;16.55;;;;;;;-7.01;49.87;95678.97;4990392;28;20505;-79
2023/02/09 06:34:30;;;;;;;17.02;11.38;;;;;;;-6.82;49.49;95673.47;4989838;28;20049;-79
2023/02/09 06:36:55;;;;;;;18.75;13.20;;;;;;;-6.76;49.17;95673.66;4990822;28;20188;-79
2023/02/09 06:39:21;;;;;;;18.45;11.65;;;;;;;-6.69;49.33;95673.84;4990533;28;20296;-78
2023/02/09 06:41:47;;;;;;;22.13;14.75;;;;;;;-6.75;49.41;95659.75;4989276;28;20128;-78
2023/02/09 06:44:12;;;;;;;20.33;12.50;;;;;;;-6.91;50.22;95664.09;4995413;28;20157;-79
2023/02/09 06:46:39;;;;;;;20.65;13.73;;;;;;;-7.34;50.97;95657.41;4953904;28;20516;-78
2023/02/09 06:49:04;;;;;;;24.08;14.18;;;;;;;-6.90;50.60;95666.53;4989773;28;20029;-80
2023/02/09 06:51:29;;;;;;;26.67;16.73;;;;;;;-6.73;50.18;95646.63;4983124;28;20535;-79
2023/02/09 06:53:55;;;;;;;27.17;14.85;;;;;;;-6.59;49.06;95638.25;4984076;28;20199;-77
2023/02/09 06:56:20;;;;;;;27.38;18.05;;;;;;;-6.34;48.97;95663.13;4980217;28;20508;-79
2023/02/09 06:58:46;;;;;;;27.65;16.42;;;;;;;-6.36;48.41;95639.19;4983415;28;20088;-79
2023/02/09 07:01:14;;;;;;;26.48;15.93;;;;;;;-6.14;48.41;95657.59;4984017;28;20088;-79
2023/02/09 07:03:40;;;;;;;31.10;17.13;;;;;;;-6.08;48.47;95654.34;4983631;28;20489;-80
2023/02/09 07:06:09;;;;;;;32.33;19.10;;;;;;;-6.26;48.46;95651.97;4983053;28;20599;-79
2023/02/09 07:08:35;;;;;;;34.13;18.23;;;;;;;-6.21;48.84;95652.28;4980995;28;20038;-78
2023/02/09 07:11:03;;;;;;;39.50;19.63;;;;;;;-7.16;49.72;95627.06;4977434;28;20046;-78
2023/02/09 07:13:30;;;;;;;31.13;19.38;;;;;;;-6.76;50.16;95636.63;4981823;28;20030;-80
2023/02/09 07:15:57;;;;;;;27.58;16.98;;;;;;;-6.54;49.30;95654.06;4987696;28;20029;-78
2023/02/09 07:18:24;;;;;;;35.08;19.15;;;;;;;-6.59;49.53;95653.78;4982651;28;20038;-79
2023/02/09 07:20:57;;;;;;;33.08;20.75;;;;;;;-6.30;49.48;95658.44;4987433;28;20042;-79
2023/02/09 07:23:23;;;;;;;29.85;18.80;;;;;;;-6.13;48.94;95656.63;4985314;28;20050;-80
2023/02/09 07:25:48;;;;;;;32.95;18.45;;;;;;;-5.88;48.85;95656.41;4987072;28;20112;-78
2023/02/09 07:28:14;;;;;;;35.45;17.58;;;;;;;-6.06;48.26;95631.69;4980672;28;20556;-79
2023/02/09 07:30:40;;;;;;;28.52;19.25;;;;;;;-5.81;48.64;95654.75;4984272;28;20050;-78
2023/02/09 07:33:06;;;;;;;33.75;20.50;;;;;;;-5.93;48.64;95637.13;4979880;28;20038;-79
2023/02/09 07:35:32;;;;;;;30.55;18.55;;;;;;;-6.28;49.28;95654.72;4988527;28;20504;-77
2023/02/09 07:37:57;;;;;;;27.75;17.52;;;;;;;-6.67;50.81;95631.28;4982833;28;20038;-80
2023/02/09 07:40:23;;;;;;;16.27;10.45;;;;;;;-6.67;49.35;95610.56;4988896;28;20141;-80
2023/02/09 07:42:50;;;;;;;22.02;12.00;;;;;;;-6.32;49.05;95644.84;4982470;28;20034;-78
2023/02/09 07:45:16;;;;;;;19.73;9.88;;;;;;;-7.36;50.26;95654.16;4987901;28;20037;-79
2023/02/09 07:47:41;;;;;;;16.35;9.88;;;;;;;-7.41;51.54;95656.41;4969218;28;20064;-79
2023/02/09 07:50:07;;;;;;;20.65;10.88;;;;;;;-7.64;52.75;95646.66;4983204;28;20393;-79
2023/02/09 07:52:32;;;;;;;17.40;10.40;;;;;;;-7.72;52.71;95631.13;4983423;28;20045;-79
2023/02/09 07:54:58;;;;;;;24.63;11.38;;;;;;;-7.76;53.00;95632.38;4979252;28;20085;-79
2023/02/09 07:57:23;;;;;;;21.95;9.70;;;;;;;-7.86;52.72;95605.09;4979534;28;20512;-80
2023/02/09 07:59:48;;;;;;;17.98;9.88;;;;;;;-7.73;52.95;95645.00;4981681;28;20084;-78
2023/02/09 08:02:27;;;;;;;26.10;12.82;;;;;;;-7.19;52.61;95635.94;4986068;28;20022;-80
2023/02/09 08:04:54;;;;;;;21.55;10.52;;;;;;;-7.61;52.45;95606.75;4982988;28;20029;-79
2023/02/09 08:07:20;;;;;;;20.10;10.10;;;;;;;-7.67;52.85;95613.38;4985862;28;20034;-80
2023/02/09 08:09:45;;;;;;;20.88;10.30;;;;;;;-6.78;52.03;95623.03;4985793;28;20036;-80
2023/02/09 08:12:11;;;;;;;25.40;11.27;;;;;;;-6.65;51.20;95638.91;4983424;28;20061;-79
2023/02/09 08:14:42;;;;;;;17.05;9.90;;;;;;;-7.04;51.71;95635.31;4978107;28;20134;-78
2023/02/09 08:17:19;;;;;;;20.00;11.32;;;;;;;-7.08;51.82;95633.03;4986601;28;20026;-77
2023/02/09 08:19:50;;;;;;;16.85;10.10;;;;;;;-7.19;52.10;95646.28;4980810;28;20050;-79
2023/02/09 08:22:15;;;;;;;15.13;9.80;;;;;;;-7.18;52.14;95632.41;4991766;28;20038;-78
2023/02/09 08:24:41;;;;;;;15.85;8.73;;;;;;;-6.70;52.01;95641.16;4981024;28;20531;-79
2023/02/09 08:27:07;;;;;;;15.55;9.40;;;;;;;-6.79;51.16;95600.72;4984161;28;20057;-79
2023/02/09 08:29:32;;;;;;;13.35;7.97;;;;;;;-6.39;50.18;95647.28;4984240;28;20425;-78
2023/02/09 08:31:57;;;;;;;13.25;8.27;;;;;;;-6.61;50.51;95614.28;4983824;28;20014;-78
2023/02/09 08:34:23;;;;;;;13.38;7.72;;;;;;;-6.35;50.14;95642.59;4983872;28;20072;-79
2023/02/09 08:36:48;;;;;;;13.18;7.40;;;;;;;-6.03;49.30;95641.69;4982960;28;20137;-78
2023/02/09 08:39:14;;;;;;;13.05;8.80;;;;;;;-6.65;50.50;95621.59;4985939;28;20604;-78
2023/02/09 08:41:39;;;;;;;18.13;8.80;;;;;;;-6.67;50.54;95596.81;4983883;28;20081;-79
2023/02/09 08:44:05;;;;;;;15.18;9.55;;;;;;;-6.78;50.82;95610.91;4985101;28;20021;-78
2023/02/09 08:46:32;;;;;;;17.77;9.20;;;;;;;-6.69;51.10;95635.78;4985534;28;20527;-79
2023/02/09 08:48:58;;;;;;;13.90;7.30;;;;;;;-6.73;50.85;95620.75;4988452;28;20038;-78
2023/02/09 08:51:23;;;;;;;17.52;8.48;;;;;;;-6.30;51.01;95638.50;4996190;28;20089;-79
2023/02/09 08:53:50;;;;;;;15.82;8.35;;;;;;;-6.16;50.41;95628.47;4990334;28;20034;-80
2023/02/09 08:56:22;;;;;;;12.55;7.80;;;;;;;-6.14;49.74;95622.13;4988601;28;20034;-76
2023/02/09 08:58:48;;;;;;;13.20;7.75;;;;;;;-6.10;49.70;95643.34;4990908;28;20642;-77
2023/02/09 09:01:13;;;;;;;11.85;7.03;;;;;;;-6.03;49.39;95634.75;4986249;28;20616;-77
2023/02/09 09:03:41;;;;;;;13.70;8.07;;;;;;;-6.00;49.03;95636.19;4989902;28;20166;-77
2023/02/09 09:06:07;;;;;;;15.23;7.97;;;;;;;-6.08;49.66;95654.34;4988492;28;20038;-77
2023/02/09 09:08:35;;;;;;;12.02;7.72;;;;;;;-5.88;49.40;95658.19;4987698;28;20026;-77
2023/02/09 09:11:01;;;;;;;15.75;7.57;;;;;;;-5.91;49.49;95653.34;4996891;28;20488;-77
2023/02/09 09:13:26;;;;;;;13.52;7.90;;;;;;;-5.66;49.20;95652.25;4992691;28;20041;-77
2023/02/09 09:15:56;;;;;;;12.45;7.25;;;;;;;-5.73;49.40;95656.50;4988153;28;20573;-78
2023/02/09 09:18:23;;;;;;;13.73;8.38;;;;;;;-5.73;48.82;95645.34;4988158;28;20592;-79
2023/02/09 09:20:49;;;;;;;13.00;7.97;;;;;;;-5.43;48.87;95641.97;4987210;28;20049;-78
2023/02/09 09:23:15;;;;;;;14.18;8.90;;;;;;;-5.60;48.16;95659.38;4989814;28;20034;-78
2023/02/09 09:25:41;;;;;;;10.73;7.47;;;;;;;-5.73;48.82;95640.16;4987566;28;20026;-77
2023/02/09 09:28:07;;;;;;;11.75;8.30;;;;;;;-5.43;48.62;95652.34;4989123;28;20038;-78
2023/02/09 09:30:33;;;;;;;22.45;11.55;;;;;;;-5.65;48.90;95633.16;4988835;28;20690;-78
2023/02/09 09:32:59;;;;;;;15.25;8.20;;;;;;;-5.62;48.47;95617.28;4990315;28;20030;-77
2023/02/09 09:35:26;;;;;;;11.73;7.85;;;;;;;-5.42;48.08;95644.38;4987699;28;20030;-78
2023/02/09 09:37:54;;;;;;;14.88;8.38;;;;;;;-5.61;48.79;95631.81;4989637;28;20093;-78
2023/02/09 09:40:23;;;;;;;15.13;7.93;;;;;;;-5.65;48.40;95616.78;4986233;28;20034;-77
2023/02/09 09:42:54;;;;;;;14.25;7.47;;;;;;;-5.67;48.68;95635.13;4988386;28;20049;-78
2023/02/09 09:45:22;;;;;;;10.00;6.68;;;;;;;-5.66;46.99;95636.72;4989875;28;20034;-78
2023/02/09 09:47:48;;;;;;;11.40;7.30;;;;;;;-5.70;48.60;95632.03;4989169;28;20606;-79
2023/02/09 09:50:20;;;;;;;10.35;6.88;;;;;;;-5.56;47.80;95639.09;4987697;28;20565;-78
2023/02/09 09:52:51;;;;;;;13.05;7.65;;;;;;;-5.58;47.41;95634.09;4990528;28;20516;-78
2023/02/09 09:55:29;;;;;;;18.88;8.75;;;;;;;-5.49;48.90;95625.31;4990787;28;20121;-78
2023/02/09 09:57:59;;;;;;;13.88;7.88;;;;;;;-5.60;48.15;95615.31;4986489;28;20042;-79
2023/02/09 10:00:28;;;;;;;11.43;7.85;;;;;;;-5.27;47.84;95631.50;4989598;28;20152;-78
2023/02/09 10:02:53;;;;;;;11.15;6.05;;;;;;;-5.42;46.66;95628.81;4987919;28;20038;-78
2023/02/09 10:05:25;;;;;;;11.52;5.97;;;;;;;-5.39;47.09;95625.09;4988700;28;20626;-78
2023/02/09 10:08:10;;;;;;;12.40;7.22;;;;;;;-5.19;48.26;95617.69;4989175;28;20575;-78
2023/02/09 10:10:53;;;;;;;17.42;9.15;;;;;;;-5.15;46.97;95616.34;4989425;28;20544;-78
2023/02/09 10:13:35;;;;;;;11.27;7.68;;;;;;;-5.19;46.88;95617.69;4995559;28;20104;-79
2023/02/09 10:16:02;;;;;;;12.25;6.53;;;;;;;-5.32;47.00;95577.53;4994011;28;20520;-78
2023/02/09 10:18:29;;;;;;;11.70;6.53;;;;;;;-4.92;47.02;95604.19;4985390;28;20500;-77
2023/02/09 10:20:55;;;;;;;13.15;6.65;;;;;;;-5.13;46.46;95602.25;4987795;28;20738;-78
2023/02/09 10:23:35;;;;;;;13.52;7.03;;;;;;;-5.14;46.20;95610.19;4988611;28;20485;-78
2023/02/09 10:26:23;;;;;;;13.00;9.05;;;;;;;-4.87;46.67;95594.91;4985784;28;20058;-78
2023/02/09 10:28:54;;;;;;;20.52;9.63;;;;;;;-4.64;47.27;95589.69;4989781;28;20060;-78
2023/02/09 10:31:34;;;;;;;21.20;9.63;;;;;;;-4.72;46.95;95600.13;4995835;28;20035;-79
2023/02/09 10:34:12;;;;;;;15.93;8.50;;;;;;;-4.84;47.13;95587.75;4987917;28;20046;-77
2023/02/09 10:37:03;;;;;;;13.30;8.32;;;;;;;-4.92;47.06;95596.41;4988821;28;20038;-78
2023/02/09 10:39:32;;;;;;;13.07;8.38;;;;;;;-4.51;47.32;95595.09;4987442;28;20062;-79
2023/02/09 10:42:19;;;;;;;13.80;9.20;;;;;;;-4.33;46.89;95588.75;4984950;28;20033;-77
2023/02/09 10:44:50;;;;;;;12.40;8.20;;;;;;;-4.18;46.34;95589.56;4986610;28;20478;-78
2023/02/09 10:47:18;;;;;;;12.38;7.10;;;;;;;-4.28;45.82;95594.22;4986156;28;20412;-77
2023/02/09 10:50:12;;;;;;;12.75;6.70;;;;;;;-4.30;45.66;95588.41;4983473;28;20034;-77
2023/02/09 10:52:43;;;;;;;11.35;6.20;;;;;;;-4.06;45.12;95585.56;4980429;28;20659;-79
2023/02/09 10:55:20;;;;;;;11.20;6.95;;;;;;;-4.34;46.07;95585.34;4985659;28;20030;-77
2023/02/09 10:57:47;;;;;;;13.93;7.47;;;;;;;-4.72;45.37;95558.59;4979485;28;20474;-78
2023/02/09 11:00:15;;;;;;;11.98;7.45;;;;;;;-4.59;46.08;95586.56;4987259;28;20034;-77
2023/02/09 11:02:50;;;;;;;12.05;6.93;;;;;;;-4.61;45.34;95581.53;4982215;28;20492;-78
2023/02/09 11:05:18;;;;;;;21.85;10.05;;;;;;;-4.47;46.21;95587.75;4980607;28;20433;-78
2023/02/09 11:07:48;;;;;;;14.02;8.65;;;;;;;-4.57;46.77;95588.00;4985143;28;20465;-78
2023/02/09 11:10:13;;;;;;;16.02;8.57;;;;;;;-4.64;47.26;95566.34;4976700;28;20446;-78
2023/02/09 11:12:39;;;;;;;15.00;8.82;;;;;;;-4.41;46.87;95570.66;4982184;28;20064;-78
2023/02/09 11:15:14;;;;;;;12.40;7.22;;;;;;;-4.40;45.57;95562.69;4977899;28;20045;-78
2023/02/09 11:17:44;;;;;;;10.65;6.72;;;;;;;-4.29;45.10;95559.63;4981111;28;20077;-79
2023/02/09 11:20:16;;;;;;;13.55;8.55;;;;;;;-4.63;45.90;95536.75;4975410;28;20092;-78
2023/02/09 11:23:01;;;;;;;11.85;6.60;;;;;;;-4.24;45.67;95567.69;4983017;28;20115;-78
2023/02/09 11:25:38;;;;;;;16.77;8.10;;;;;;;-4.16;45.27;95552.03;4976433;28;20049;-78
2023/02/09 11:28:21;;;;;;;35.33;7.75;;;;;;;-4.02;45.79;95561.63;4980476;28;20077;-78
2023/02/09 11:31:19;;;;;;;16.35;8.45;;;;;;;-4.05;45.79;95561.19;4985501;28;20038;-78
2023/02/09 11:34:20;;;;;;;9.70;6.53;;;;;;;-3.76;45.39;95553.34;4997114;28;20038;-78
2023/02/09 11:37:01;;;;;;;15.23;7.35;;;;;;;-3.93;45.11;95554.53;4985000;28;20045;-78
2023/02/09 11:39:33;;;;;;;11.20;6.03;;;;;;;-3.85;43.92;95523.22;4983900;28;20140;-81